Camas Valley, Oregon
Current Conditions -  °F | °C
As of 7:53 PM on Friday 24 Oct 2014 (Local Time) from KRBG Reporting Station
Overcast Overcast  
Wind Chill: 57°   Ceiling: 800
Heat Index: 57°   Visibility: 8mi
Dew Point: 52°   Wind: 6mph
Humidity: 83%   Direction: 350°N
Pressure: 29.71"   Gusts: NA
Location:  43.03°N, 123.68°W
Report Text: KRBG 250253Z AUTO 35005KT 8SM OVC008 14/11 A2971 RMK AO2 SLP060 T01390111 56017 $
Loading
Personal Weather Stations






























Interactive Weather Map
Tropical Storm Tracking
New forecast layout! Learn more

10-Day Weather Forecast

Advertisements
Track Severe Weather on mobile